createdAt,value
2023-05-13T00:01:57.641Z,4.63
2023-05-13T00:04:00.537Z,3.97
2023-05-13T00:06:03.363Z,4.60
2023-05-13T00:08:07.132Z,4.40
2023-05-13T00:10:11.791Z,4.60
2023-05-13T00:12:14.583Z,4.80
2023-05-13T00:14:17.405Z,4.43
2023-05-13T00:16:24.188Z,4.00
2023-05-13T00:18:27.273Z,4.30
2023-05-13T00:20:30.200Z,4.53
2023-05-13T00:22:33.016Z,4.77
2023-05-13T00:24:36.207Z,4.60
2023-05-13T00:26:39.039Z,4.60
2023-05-13T00:28:41.817Z,4.20
2023-05-13T00:30:45.714Z,4.80
2023-05-13T00:32:50.056Z,4.70
2023-05-13T00:34:52.895Z,5.13
2023-05-13T00:36:55.725Z,4.20
2023-05-13T00:38:58.703Z,4.87
2023-05-13T00:41:01.597Z,5.00
2023-05-13T00:43:04.395Z,4.30
2023-05-13T00:45:08.188Z,3.80
2023-05-13T00:47:12.521Z,4.10
2023-05-13T00:49:16.998Z,4.50
2023-05-13T00:51:19.864Z,4.70
2023-05-13T00:53:22.979Z,4.57
2023-05-13T00:55:26.662Z,4.17
2023-05-13T00:57:29.725Z,4.50
2023-05-13T00:59:32.930Z,3.97
2023-05-13T01:01:44.914Z,4.10
2023-05-13T01:04:10.546Z,4.20
2023-05-13T01:06:18.811Z,4.47
2023-05-13T01:08:30.278Z,4.20
2023-05-13T01:10:39.193Z,4.00
2023-05-13T01:12:44.454Z,4.93
2023-05-13T01:15:06.805Z,4.80
2023-05-13T01:17:15.975Z,5.10
2023-05-13T01:19:28.808Z,5.47
2023-05-13T01:21:36.902Z,5.37
2023-05-13T01:23:39.700Z,5.10
2023-05-13T01:25:42.728Z,5.77
2023-05-13T01:27:45.848Z,4.80
2023-05-13T01:29:49.593Z,4.73
2023-05-13T01:31:54.680Z,5.53
2023-05-13T01:33:58.514Z,4.90
2023-05-13T01:36:02.649Z,4.33
2023-05-13T01:38:07.429Z,4.70
2023-05-13T01:40:24.217Z,5.07
2023-05-13T01:42:35.401Z,4.63
2023-05-13T01:44:38.350Z,4.83
2023-05-13T01:46:41.304Z,4.70
2023-05-13T01:48:44.135Z,4.10
2023-05-13T01:50:47.356Z,4.07
2023-05-13T01:52:50.147Z,4.90
2023-05-13T01:54:54.548Z,5.17
2023-05-13T01:56:57.562Z,4.57
2023-05-13T01:59:00.973Z,5.23
2023-05-13T02:01:04.603Z,4.90
2023-05-13T02:03:07.508Z,5.00
2023-05-13T02:05:10.706Z,5.03
2023-05-13T02:07:13.534Z,5.13
2023-05-13T02:09:16.390Z,4.90
2023-05-13T02:11:20.558Z,5.73
2023-05-13T02:13:23.360Z,5.13
2023-05-13T02:15:26.128Z,5.20
2023-05-13T02:17:29.014Z,5.70
2023-05-13T02:19:31.865Z,5.23
2023-05-13T02:21:34.678Z,5.70
2023-05-13T02:23:37.964Z,5.03
2023-05-13T02:25:40.751Z,5.33
2023-05-13T02:27:44.906Z,5.47
2023-05-13T02:29:48.048Z,4.70
2023-05-13T02:31:51.174Z,5.37
2023-05-13T02:33:54.423Z,5.07
2023-05-13T02:35:57.256Z,5.10
2023-05-13T02:38:00.168Z,4.77
2023-05-13T02:40:03.672Z,5.10
2023-05-13T02:42:07.128Z,5.23
2023-05-13T02:44:11.312Z,4.90
2023-05-13T02:46:14.131Z,5.40
2023-05-13T02:48:17.435Z,5.00
2023-05-13T02:50:21.358Z,5.30
2023-05-13T02:52:24.445Z,5.10
2023-05-13T02:54:27.265Z,4.97
2023-05-13T02:56:30.058Z,5.13
2023-05-13T02:58:32.937Z,5.00
2023-05-13T03:00:37.172Z,4.57
2023-05-13T03:02:40.078Z,5.07
2023-05-13T03:04:43.043Z,5.50
2023-05-13T03:06:45.884Z,5.23
2023-05-13T03:08:48.708Z,4.90
2023-05-13T03:10:52.392Z,5.10
2023-05-13T03:12:55.486Z,4.70
2023-05-13T03:14:59.254Z,5.43
2023-05-13T03:17:03.556Z,4.97
2023-05-13T03:19:06.404Z,5.10
2023-05-13T03:21:09.284Z,6.47
2023-05-13T03:23:12.088Z,6.23
2023-05-13T03:25:14.994Z,7.17
2023-05-13T03:27:17.899Z,5.80
2023-05-13T03:29:20.721Z,5.97
2023-05-13T03:31:23.648Z,5.50
2023-05-13T03:33:29.781Z,4.90
2023-05-13T03:35:32.644Z,5.57
2023-05-13T03:37:35.563Z,5.20
2023-05-13T03:39:38.386Z,5.37
2023-05-13T03:41:41.314Z,5.17
2023-05-13T03:43:44.513Z,5.53
2023-05-13T03:45:48.505Z,5.40
2023-05-13T03:47:51.425Z,4.80
2023-05-13T03:49:55.550Z,5.97
2023-05-13T03:51:58.354Z,5.50
2023-05-13T03:54:01.240Z,5.50
2023-05-13T03:56:04.242Z,5.20
2023-05-13T03:58:13.496Z,5.23
2023-05-13T04:00:16.801Z,5.30
2023-05-13T04:02:21.800Z,5.50
2023-05-13T04:04:24.726Z,5.47
2023-05-13T04:06:28.908Z,4.93
2023-05-13T04:08:31.668Z,5.53
2023-05-13T04:10:34.510Z,4.97
2023-05-13T04:12:37.597Z,5.30
2023-05-13T04:14:40.497Z,5.20
2023-05-13T04:16:43.434Z,5.27
2023-05-13T04:18:46.220Z,5.90
2023-05-13T04:20:49.088Z,5.03
2023-05-13T04:22:53.566Z,4.97
2023-05-13T04:24:57.194Z,4.83
2023-05-13T04:27:01.405Z,5.47
2023-05-13T04:29:04.831Z,5.07
2023-05-13T04:31:07.756Z,5.90
2023-05-13T04:33:10.676Z,5.43
2023-05-13T04:35:13.556Z,6.53
2023-05-13T04:37:16.548Z,5.23
2023-05-13T04:39:20.749Z,5.10
2023-05-13T04:41:23.589Z,9.30
2023-05-13T04:43:26.552Z,6.93
2023-05-13T04:45:30.485Z,5.77
2023-05-13T04:47:35.253Z,5.20
2023-05-13T04:49:38.161Z,5.30
2023-05-13T04:51:41.552Z,5.43
2023-05-13T04:53:44.689Z,5.20
2023-05-13T04:55:50.113Z,5.17
2023-05-13T04:57:52.909Z,5.33
2023-05-13T04:59:56.590Z,4.90
2023-05-13T05:01:59.592Z,4.90
2023-05-13T05:04:02.623Z,5.63
2023-05-13T05:06:05.898Z,5.53
2023-05-13T05:08:08.656Z,5.10
2023-05-13T05:10:11.950Z,4.87
2023-05-13T05:12:16.217Z,5.87
2023-05-13T05:14:19.124Z,5.43
2023-05-13T05:16:22.067Z,5.70
2023-05-13T05:18:25.114Z,5.97
2023-05-13T05:20:28.266Z,5.10
2023-05-13T05:22:31.186Z,5.07
2023-05-13T05:24:34.876Z,4.87
2023-05-13T05:26:38.015Z,4.73
2023-05-13T05:28:43.505Z,5.10
2023-05-13T05:30:46.765Z,4.90
2023-05-13T05:32:49.787Z,4.93
2023-05-13T05:34:52.704Z,5.07
2023-05-13T05:36:56.101Z,4.90
2023-05-13T05:38:58.996Z,4.70
2023-05-13T05:41:01.899Z,4.53
2023-05-13T05:43:04.741Z,5.43
2023-05-13T05:45:10.037Z,5.80
2023-05-13T05:47:12.832Z,5.50
2023-05-13T05:49:15.687Z,5.33
2023-05-13T05:51:18.496Z,5.53
2023-05-13T05:53:21.319Z,5.40
2023-05-13T05:55:24.152Z,5.13
2023-05-13T05:57:27.123Z,5.17
2023-05-13T05:59:30.332Z,5.80
2023-05-13T06:01:36.745Z,5.20
2023-05-13T06:03:39.764Z,4.87
2023-05-13T06:05:43.208Z,5.40
2023-05-13T06:07:46.062Z,5.77
2023-05-13T06:09:49.008Z,5.60
2023-05-13T06:11:51.850Z,5.50
2023-05-13T06:13:54.903Z,5.40
2023-05-13T06:15:57.886Z,5.60
2023-05-13T06:18:05.559Z,5.83
2023-05-13T06:20:09.080Z,6.10
2023-05-13T06:22:12.215Z,6.00
2023-05-13T06:24:15.205Z,5.57
2023-05-13T06:26:17.986Z,5.70
2023-05-13T06:28:20.848Z,5.63
2023-05-13T06:30:23.881Z,5.60
2023-05-13T06:32:26.840Z,5.80
2023-05-13T06:34:31.032Z,5.23
2023-05-13T06:36:34.047Z,5.07
2023-05-13T06:38:36.868Z,5.20
2023-05-13T06:40:39.753Z,5.37
2023-05-13T06:42:42.554Z,5.30
2023-05-13T06:44:45.577Z,5.00
2023-05-13T06:46:48.410Z,4.63
2023-05-13T06:48:52.551Z,4.70
2023-05-13T06:50:56.722Z,4.90
2023-05-13T06:52:59.672Z,4.90
2023-05-13T06:55:02.835Z,4.40
2023-05-13T06:57:07.427Z,5.07
2023-05-13T06:59:10.397Z,4.70
2023-05-13T07:01:13.529Z,4.50
2023-05-13T07:03:16.428Z,4.27
2023-05-13T07:05:19.299Z,4.53
2023-05-13T07:07:23.597Z,5.17
2023-05-13T07:09:27.308Z,5.37
2023-05-13T07:11:30.300Z,5.00
2023-05-13T07:13:34.789Z,5.33
2023-05-13T07:15:37.835Z,5.60
2023-05-13T07:17:41.049Z,5.20
2023-05-13T07:19:44.086Z,5.20
2023-05-13T07:21:46.912Z,4.70
2023-05-13T07:23:51.262Z,4.80
2023-05-13T07:25:54.123Z,4.60
2023-05-13T07:27:56.955Z,5.47
2023-05-13T07:29:59.795Z,5.03
2023-05-13T07:32:05.497Z,4.77
2023-05-13T07:34:08.322Z,5.23
2023-05-13T07:36:11.455Z,4.83
2023-05-13T07:38:14.528Z,4.40
2023-05-13T07:40:22.263Z,3.53
2023-05-13T07:42:25.950Z,4.30
2023-05-13T07:44:28.776Z,3.80
2023-05-13T07:46:32.108Z,4.30
2023-05-13T07:48:34.993Z,4.10
2023-05-13T07:50:37.765Z,3.87
2023-05-13T07:52:40.578Z,3.70
2023-05-13T07:54:43.450Z,3.87
2023-05-13T07:56:48.086Z,4.20
2023-05-13T07:58:50.935Z,3.43
2023-05-13T08:00:53.943Z,3.90
2023-05-13T08:02:57.117Z,3.40
2023-05-13T08:04:59.978Z,3.50
2023-05-13T08:07:03.142Z,3.90
2023-05-13T08:09:06.554Z,3.83
2023-05-13T08:11:09.372Z,3.03
2023-05-13T08:13:13.526Z,2.97
2023-05-13T08:15:17.061Z,3.00
2023-05-13T08:17:20.031Z,3.23
2023-05-13T08:19:22.899Z,2.70
2023-05-13T08:21:25.707Z,2.90
2023-05-13T08:23:43.312Z,3.07
2023-05-13T08:25:47.702Z,3.67
2023-05-13T08:27:50.596Z,2.83
2023-05-13T08:29:54.836Z,3.00
2023-05-13T08:31:57.702Z,3.20
2023-05-13T08:34:00.595Z,2.90
2023-05-13T08:36:04.268Z,3.00
2023-05-13T08:38:06.999Z,3.13
2023-05-13T08:40:13.405Z,3.10
2023-05-13T08:42:19.376Z,2.70
2023-05-13T08:44:28.687Z,2.93
2023-05-13T08:46:34.938Z,3.40
2023-05-13T08:48:39.260Z,3.70
2023-05-13T08:50:42.755Z,3.57
2023-05-13T08:52:46.707Z,3.27
2023-05-13T08:54:50.533Z,3.77
2023-05-13T08:56:53.372Z,3.23
2023-05-13T08:58:56.164Z,3.33
2023-05-13T09:00:59.501Z,3.67
2023-05-13T09:03:03.933Z,3.53
2023-05-13T09:05:08.687Z,3.30
2023-05-13T09:07:11.969Z,3.13
2023-05-13T09:09:15.158Z,3.50
2023-05-13T09:11:18.179Z,3.70
2023-05-13T09:13:20.949Z,3.73
2023-05-13T09:15:25.215Z,3.40
2023-05-13T09:17:31.246Z,3.50
2023-05-13T09:19:36.980Z,3.50
2023-05-13T09:21:44.873Z,3.50
2023-05-13T09:23:47.767Z,3.37
2023-05-13T09:25:50.611Z,3.20
2023-05-13T09:27:57.655Z,3.40
2023-05-13T09:30:01.465Z,3.40
2023-05-13T09:32:10.608Z,3.03
2023-05-13T09:34:13.623Z,3.20
2023-05-13T09:36:18.340Z,3.40
2023-05-13T09:38:23.369Z,3.40
2023-05-13T09:40:26.257Z,3.60
2023-05-13T09:42:29.163Z,2.83
2023-05-13T09:44:32.070Z,3.00
2023-05-13T09:46:35.170Z,2.80
2023-05-13T09:48:44.406Z,3.10
2023-05-13T09:50:49.767Z,3.05
2023-05-13T09:52:54.051Z,3.15
2023-05-13T09:54:57.891Z,3.22
2023-05-13T09:57:01.361Z,2.97
2023-05-13T09:59:04.996Z,3.05
2023-05-13T10:01:08.262Z,3.25
2023-05-13T10:03:11.849Z,3.20
2023-05-13T10:05:14.831Z,2.92
2023-05-13T10:07:17.667Z,3.20
2023-05-13T10:09:22.297Z,3.10
2023-05-13T10:11:25.633Z,2.90
2023-05-13T10:13:31.948Z,2.97
2023-05-13T10:15:35.837Z,3.30
2023-05-13T10:17:39.394Z,3.00
2023-05-13T10:19:42.671Z,2.80
2023-05-13T10:21:45.844Z,3.00
2023-05-13T10:23:49.260Z,2.90
2023-05-13T10:25:55.187Z,3.20
2023-05-13T10:27:59.078Z,3.10
2023-05-13T10:30:04.990Z,3.17
2023-05-13T10:32:10.258Z,2.80
2023-05-13T10:34:14.047Z,3.22
2023-05-13T10:36:49.577Z,2.97
2023-05-13T10:39:11.377Z,2.90
2023-05-13T10:41:32.159Z,3.10
2023-05-13T10:43:36.094Z,3.10
2023-05-13T10:45:38.938Z,2.70
2023-05-13T10:47:41.810Z,2.70
2023-05-13T10:49:51.984Z,3.40
2023-05-13T10:52:04.473Z,2.80
2023-05-13T10:54:20.162Z,3.22
2023-05-13T10:56:25.790Z,2.97
2023-05-13T10:58:32.702Z,2.53
2023-05-13T11:00:37.324Z,2.90
2023-05-13T11:02:40.166Z,2.45
2023-05-13T11:05:00.997Z,2.50
2023-05-13T11:07:17.226Z,2.72
2023-05-13T11:09:31.505Z,2.97
2023-05-13T11:11:36.770Z,3.00
2023-05-13T11:13:39.759Z,2.70
2023-05-13T11:15:47.081Z,2.85
2023-05-13T11:17:54.214Z,2.90
2023-05-13T11:19:58.144Z,2.75
2023-05-13T11:22:11.858Z,2.30
2023-05-13T11:24:19.582Z,2.72
2023-05-13T11:26:23.028Z,2.60
2023-05-13T11:28:58.660Z,2.55
2023-05-13T11:31:16.783Z,2.40
2023-05-13T11:33:19.659Z,2.53
2023-05-13T11:35:23.378Z,2.60
2023-05-13T11:37:26.222Z,2.30
2023-05-13T11:39:29.153Z,2.20
2023-05-13T11:41:33.395Z,2.28
2023-05-13T11:43:36.578Z,2.35
2023-05-13T11:45:41.041Z,2.75
2023-05-13T11:47:45.348Z,2.60
2023-05-13T11:49:48.509Z,3.22
2023-05-13T11:51:51.323Z,2.63
2023-05-13T11:54:01.429Z,2.40
2023-05-13T11:56:11.179Z,2.60
2023-05-13T11:58:15.890Z,2.70
2023-05-13T12:00:19.287Z,2.63
2023-05-13T12:02:23.550Z,2.78
2023-05-13T12:04:31.159Z,2.50
2023-05-13T12:06:34.060Z,2.40
2023-05-13T12:08:45.393Z,2.47
2023-05-13T12:10:48.258Z,2.45
2023-05-13T12:12:51.701Z,2.47
2023-05-13T12:14:55.476Z,2.78
2023-05-13T12:16:58.597Z,2.55
2023-05-13T12:19:02.140Z,2.83
2023-05-13T12:21:17.232Z,2.50
2023-05-13T12:23:20.076Z,2.65
2023-05-13T12:25:40.001Z,2.50
2023-05-13T12:27:42.801Z,2.60
2023-05-13T12:29:45.708Z,2.78
2023-05-13T12:32:05.196Z,2.63
2023-05-13T12:34:08.227Z,2.80
2023-05-13T12:36:21.033Z,2.70
2023-05-13T12:38:25.257Z,2.60
2023-05-13T12:40:28.424Z,2.58
2023-05-13T12:42:31.368Z,2.90
2023-05-13T12:44:34.323Z,2.60
2023-05-13T12:46:39.748Z,2.90
2023-05-13T12:48:44.694Z,2.78
2023-05-13T12:50:48.043Z,2.58
2023-05-13T12:52:52.304Z,2.47
2023-05-13T12:54:55.109Z,2.70
2023-05-13T12:56:58.079Z,2.70
2023-05-13T12:59:00.937Z,2.58
2023-05-13T13:01:03.895Z,2.70
2023-05-13T13:03:08.071Z,2.30
2023-05-13T13:05:11.538Z,2.65
2023-05-13T13:07:14.818Z,2.78
2023-05-13T13:09:19.121Z,2.45
2023-05-13T13:11:21.956Z,2.50
2023-05-13T13:13:24.765Z,2.67
2023-05-13T13:15:27.529Z,2.70
2023-05-13T13:17:30.326Z,2.78
2023-05-13T13:19:33.420Z,2.40
2023-05-13T13:21:36.162Z,2.70
2023-05-13T13:23:38.939Z,2.75
2023-05-13T13:25:43.174Z,2.80
2023-05-13T13:27:46.112Z,3.25
2023-05-13T13:29:49.216Z,2.83
2023-05-13T13:31:52.767Z,2.65
2023-05-13T13:33:55.678Z,2.90
2023-05-13T13:35:58.512Z,2.55
2023-05-13T13:38:01.316Z,2.45
2023-05-13T13:40:04.538Z,2.72
2023-05-13T13:42:08.955Z,2.70
2023-05-13T13:44:11.767Z,2.90
2023-05-13T13:46:14.613Z,2.50
2023-05-13T13:48:17.375Z,2.70
2023-05-13T13:50:20.428Z,2.47
2023-05-13T13:52:24.579Z,2.50
2023-05-13T13:54:27.376Z,2.42
2023-05-13T13:56:30.600Z,2.60
2023-05-13T13:58:34.931Z,2.15
2023-05-13T14:00:37.745Z,2.30
2023-05-13T14:02:40.927Z,2.40
2023-05-13T14:04:43.886Z,2.30
2023-05-13T14:06:46.931Z,2.35
2023-05-13T14:08:51.797Z,2.50
2023-05-13T14:10:54.629Z,2.60
2023-05-13T14:12:57.501Z,2.10
2023-05-13T14:15:01.660Z,2.92
2023-05-13T14:17:04.749Z,2.50
2023-05-13T14:19:07.733Z,2.83
2023-05-13T14:21:10.730Z,2.50
2023-05-13T14:23:13.560Z,2.70
2023-05-13T14:25:16.559Z,2.50
2023-05-13T14:27:19.716Z,2.60
2023-05-13T14:29:22.540Z,2.60
2023-05-13T14:31:26.800Z,2.50
2023-05-13T14:33:29.733Z,2.15
2023-05-13T14:35:32.525Z,2.00
2023-05-13T14:37:35.325Z,2.35
2023-05-13T14:39:38.101Z,2.15
2023-05-13T14:41:42.360Z,2.42
2023-05-13T14:43:45.163Z,2.00
2023-05-13T14:45:47.970Z,2.30
2023-05-13T14:47:53.722Z,2.15
2023-05-13T14:49:56.824Z,2.28
2023-05-13T14:51:59.642Z,2.20
2023-05-13T14:54:02.520Z,2.40
2023-05-13T14:56:05.629Z,2.55
2023-05-13T14:58:09.156Z,2.40
2023-05-13T15:00:15.168Z,2.50
2023-05-13T15:02:18.179Z,2.30
2023-05-13T15:04:22.519Z,2.35
2023-05-13T15:06:25.428Z,2.47
2023-05-13T15:08:28.419Z,2.40
2023-05-13T15:10:31.179Z,2.30
2023-05-13T15:12:34.120Z,2.38
2023-05-13T15:14:36.932Z,2.10
2023-05-13T15:16:40.102Z,2.03
2023-05-13T15:18:42.988Z,4.15
2023-05-13T15:20:47.199Z,2.40
2023-05-13T15:22:50.043Z,2.20
2023-05-13T15:24:55.664Z,2.95
2023-05-13T15:26:58.416Z,2.30
2023-05-13T15:29:01.322Z,2.17
2023-05-13T15:31:04.143Z,2.90
2023-05-13T15:33:06.956Z,2.17
2023-05-13T15:35:10.569Z,2.40
2023-05-13T15:37:14.734Z,2.78
2023-05-13T15:39:17.659Z,2.30
2023-05-13T15:41:20.524Z,2.00
2023-05-13T15:43:23.336Z,2.17
2023-05-13T15:45:26.446Z,2.13
2023-05-13T15:47:29.617Z,2.20
2023-05-13T15:49:33.215Z,2.08
2023-05-13T15:51:36.354Z,1.95
2023-05-13T15:53:40.451Z,2.58
2023-05-13T15:55:43.250Z,2.47
2023-05-13T15:57:46.901Z,2.25
2023-05-13T15:59:50.551Z,2.53
2023-05-13T16:01:53.364Z,2.20
2023-05-13T16:03:56.155Z,2.38
2023-05-13T16:05:59.170Z,2.40
2023-05-13T16:08:01.863Z,2.30
2023-05-13T16:10:10.018Z,2.35
2023-05-13T16:12:12.812Z,2.10
2023-05-13T16:14:16.661Z,2.50
2023-05-13T16:16:21.501Z,2.60
2023-05-13T16:18:24.415Z,2.65
2023-05-13T16:20:27.519Z,2.40
2023-05-13T16:22:33.478Z,2.90
2023-05-13T16:24:36.281Z,2.70
2023-05-13T16:26:40.523Z,2.33
2023-05-13T16:28:43.510Z,2.70
2023-05-13T16:30:46.831Z,2.83
2023-05-13T16:32:53.255Z,2.50
2023-05-13T16:34:56.501Z,2.70
2023-05-13T16:36:59.437Z,2.80
2023-05-13T16:39:02.344Z,2.65
2023-05-13T16:41:05.710Z,2.58
2023-05-13T16:43:09.954Z,2.33
2023-05-13T16:45:13.191Z,2.50
2023-05-13T16:47:16.018Z,2.53
2023-05-13T16:49:18.899Z,2.60
2023-05-13T16:51:21.788Z,2.83
2023-05-13T16:53:26.445Z,3.33
2023-05-13T16:55:29.196Z,2.72
2023-05-13T16:57:32.138Z,2.63
2023-05-13T16:59:36.280Z,3.08
2023-05-13T17:01:39.220Z,2.60
2023-05-13T17:03:42.116Z,3.10
2023-05-13T17:05:45.221Z,2.65
2023-05-13T17:07:48.066Z,2.72
2023-05-13T17:09:51.133Z,2.38
2023-05-13T17:11:55.023Z,2.42
2023-05-13T17:13:57.846Z,2.42
2023-05-13T17:16:01.980Z,2.40
2023-05-13T17:18:05.094Z,2.55
2023-05-13T17:20:08.997Z,2.63
2023-05-13T17:22:11.775Z,2.65
2023-05-13T17:24:14.589Z,2.45
2023-05-13T17:26:17.383Z,2.58
2023-05-13T17:28:20.149Z,2.50
2023-05-13T17:30:23.955Z,2.65
2023-05-13T17:32:28.642Z,2.55
2023-05-13T17:34:31.453Z,2.20
2023-05-13T17:36:34.330Z,2.45
2023-05-13T17:38:37.752Z,2.42
2023-05-13T17:40:40.703Z,2.50
2023-05-13T17:42:43.887Z,2.42
2023-05-13T17:44:46.707Z,2.63
2023-05-13T17:46:49.472Z,2.22
2023-05-13T17:48:54.255Z,2.30
2023-05-13T17:50:57.130Z,2.50
2023-05-13T17:53:00.537Z,2.30
2023-05-13T17:55:03.341Z,2.70
2023-05-13T17:57:06.847Z,2.30
2023-05-13T17:59:09.726Z,2.30
2023-05-13T18:01:12.681Z,2.58
2023-05-13T18:03:15.550Z,2.50
2023-05-13T18:05:21.326Z,2.60
2023-05-13T18:07:24.421Z,2.60
2023-05-13T18:09:27.257Z,2.28
2023-05-13T18:11:30.044Z,2.30
2023-05-13T18:13:32.841Z,2.45
2023-05-13T18:15:35.624Z,2.50
2023-05-13T18:17:38.469Z,2.40
2023-05-13T18:19:41.317Z,2.43
2023-05-13T18:21:46.635Z,2.33
2023-05-13T18:23:49.482Z,2.57
2023-05-13T18:25:55.951Z,2.40
2023-05-13T18:27:59.006Z,2.43
2023-05-13T18:30:01.905Z,2.40
2023-05-13T18:32:05.623Z,2.73
2023-05-13T18:34:08.402Z,2.77
2023-05-13T18:36:11.192Z,2.60
2023-05-13T18:38:15.373Z,2.37
2023-05-13T18:40:18.154Z,2.50
2023-05-13T18:42:20.957Z,2.80
2023-05-13T18:44:23.891Z,2.80
2023-05-13T18:46:26.853Z,2.70
2023-05-13T18:48:29.872Z,3.27
2023-05-13T18:50:32.664Z,2.70
2023-05-13T18:52:35.412Z,2.87
2023-05-13T18:54:39.706Z,2.40
2023-05-13T18:56:42.580Z,2.60
2023-05-13T18:58:46.745Z,2.20
2023-05-13T19:00:49.681Z,2.40
2023-05-13T19:02:52.696Z,2.23
2023-05-13T19:04:55.792Z,1.97
2023-05-13T19:06:58.632Z,2.40
2023-05-13T19:09:01.439Z,2.13
2023-05-13T19:11:06.606Z,2.50
2023-05-13T19:13:09.544Z,2.50
2023-05-13T19:15:14.828Z,2.10
2023-05-13T19:17:17.752Z,2.37
2023-05-13T19:19:20.783Z,2.40
2023-05-13T19:21:24.212Z,2.83
2023-05-13T19:23:27.085Z,2.60
2023-05-13T19:25:29.952Z,2.67
2023-05-13T19:27:34.291Z,2.70
2023-05-13T19:29:38.012Z,2.40
2023-05-13T19:31:41.293Z,1.87
2023-05-13T19:33:46.078Z,2.50
2023-05-13T19:35:49.272Z,2.10
2023-05-13T19:37:52.716Z,2.47
2023-05-13T19:39:55.463Z,2.10
2023-05-13T19:41:58.230Z,2.20
2023-05-13T19:44:02.479Z,2.20
2023-05-13T19:46:05.669Z,2.30
2023-05-13T19:48:08.661Z,2.47
2023-05-13T19:50:11.666Z,2.30
2023-05-13T19:52:14.456Z,2.17
2023-05-13T19:54:17.472Z,2.30
2023-05-13T19:56:21.117Z,2.50
2023-05-13T19:58:23.890Z,2.40
2023-05-13T20:00:28.225Z,2.30
2023-05-13T20:02:31.083Z,2.93
2023-05-13T20:04:34.035Z,2.40
2023-05-13T20:06:37.539Z,2.50
2023-05-13T20:08:41.313Z,2.30
2023-05-13T20:10:44.371Z,2.57
2023-05-13T20:12:47.170Z,2.47
2023-05-13T20:14:52.000Z,2.40
2023-05-13T20:16:56.113Z,2.60
2023-05-13T20:18:58.946Z,2.60
2023-05-13T20:21:02.398Z,2.47
2023-05-13T20:23:05.481Z,2.90
2023-05-13T20:25:09.124Z,2.70
2023-05-13T20:27:11.972Z,2.63
2023-05-13T20:29:14.839Z,2.90
2023-05-13T20:31:18.028Z,2.70
2023-05-13T20:33:22.551Z,2.87
2023-05-13T20:35:25.499Z,2.97
2023-05-13T20:37:29.625Z,2.70
2023-05-13T20:39:32.693Z,2.63
2023-05-13T20:41:35.521Z,2.80
2023-05-13T20:43:38.501Z,2.60
2023-05-13T20:45:41.464Z,3.27
2023-05-13T20:47:44.531Z,2.97
2023-05-13T20:49:48.839Z,3.60
2023-05-13T20:51:52.005Z,3.53
2023-05-13T20:53:54.870Z,3.10
2023-05-13T20:55:57.704Z,3.10
2023-05-13T20:58:00.834Z,3.20
2023-05-13T21:00:04.089Z,3.50
2023-05-13T21:02:06.973Z,3.10
2023-05-13T21:04:10.633Z,3.00
2023-05-13T21:06:14.846Z,3.40
2023-05-13T21:08:17.880Z,3.33
2023-05-13T21:10:21.927Z,3.40
2023-05-13T21:12:25.095Z,5.63
2023-05-13T21:14:27.974Z,5.60
2023-05-13T21:16:31.076Z,4.73
2023-05-13T21:18:34.236Z,4.63
2023-05-13T21:20:37.437Z,4.27
2023-05-13T21:22:41.528Z,3.87
2023-05-13T21:24:44.867Z,3.40
2023-05-13T21:26:49.174Z,3.40
2023-05-13T21:28:52.556Z,4.03
2023-05-13T21:30:55.369Z,3.60
2023-05-13T21:32:58.382Z,4.17
2023-05-13T21:35:01.191Z,3.70
2023-05-13T21:37:04.016Z,3.60
2023-05-13T21:39:10.423Z,3.90
2023-05-13T21:41:13.278Z,3.90
2023-05-13T21:43:16.494Z,4.03
2023-05-13T21:45:20.572Z,4.13
2023-05-13T21:47:23.587Z,4.50
2023-05-13T21:49:26.667Z,3.90
2023-05-13T21:51:30.070Z,3.77
2023-05-13T21:53:33.905Z,3.83
2023-05-13T21:55:38.115Z,3.90
2023-05-13T21:57:40.921Z,4.00
2023-05-13T21:59:43.748Z,3.80
2023-05-13T22:01:46.718Z,3.70
2023-05-13T22:03:49.612Z,4.10
2023-05-13T22:05:52.411Z,3.97
2023-05-13T22:07:55.410Z,4.13
2023-05-13T22:09:58.223Z,4.17
2023-05-13T22:12:02.995Z,3.73
2023-05-13T22:14:05.971Z,3.90
2023-05-13T22:16:09.092Z,3.97
2023-05-13T22:18:11.997Z,4.00
2023-05-13T22:20:15.185Z,9.07
2023-05-13T22:22:18.049Z,7.07
2023-05-13T22:24:21.096Z,5.20
2023-05-13T22:26:23.988Z,3.93
2023-05-13T22:28:28.154Z,4.00
2023-05-13T22:30:31.034Z,3.97
2023-05-13T22:32:34.312Z,4.60
2023-05-13T22:34:37.168Z,4.20
2023-05-13T22:36:41.762Z,4.03
2023-05-13T22:38:45.921Z,4.27
2023-05-13T22:40:48.773Z,3.83
2023-05-13T22:42:51.664Z,4.27
2023-05-13T22:44:56.001Z,4.13
2023-05-13T22:46:58.785Z,4.20
2023-05-13T22:49:01.690Z,4.27
2023-05-13T22:51:04.925Z,4.37
2023-05-13T22:53:07.742Z,4.53
2023-05-13T22:55:11.647Z,4.37
2023-05-13T22:57:14.419Z,4.90
2023-05-13T22:59:17.357Z,4.70
2023-05-13T23:01:21.691Z,4.77
2023-05-13T23:03:24.454Z,4.53
2023-05-13T23:05:27.278Z,4.07
2023-05-13T23:07:30.070Z,4.50
2023-05-13T23:09:32.790Z,4.20
2023-05-13T23:11:37.446Z,4.67
2023-05-13T23:13:40.195Z,4.00
2023-05-13T23:15:42.956Z,4.57
2023-05-13T23:17:47.245Z,4.60
2023-05-13T23:19:50.073Z,4.70
2023-05-13T23:21:53.259Z,7.17
2023-05-13T23:23:57.323Z,7.37
2023-05-13T23:26:00.054Z,5.50
2023-05-13T23:28:02.894Z,4.70
2023-05-13T23:30:07.138Z,4.27
2023-05-13T23:32:10.034Z,4.37
2023-05-13T23:34:14.276Z,4.60
2023-05-13T23:36:17.048Z,4.70
2023-05-13T23:38:19.867Z,4.60
2023-05-13T23:40:22.843Z,4.63
2023-05-13T23:42:25.850Z,4.30
2023-05-13T23:44:28.656Z,4.33
2023-05-13T23:46:31.997Z,4.07
2023-05-13T23:48:34.808Z,4.17
2023-05-13T23:50:38.966Z,4.50
2023-05-13T23:52:41.897Z,4.87
2023-05-13T23:54:44.657Z,4.30
2023-05-13T23:56:47.372Z,3.80
2023-05-13T23:58:50.120Z,4.10
